createdAt,value
2023-02-02T00:01:58.074Z,9.43
2023-02-02T00:04:31.338Z,8.75
2023-02-02T00:07:01.163Z,8.60
2023-02-02T00:09:32.661Z,7.70
2023-02-02T00:12:03.031Z,7.15
2023-02-02T00:14:32.115Z,8.45
2023-02-02T00:17:04.117Z,8.45
2023-02-02T00:19:33.579Z,6.18
2023-02-02T00:22:02.743Z,6.97
2023-02-02T00:24:31.667Z,7.38
2023-02-02T00:27:01.896Z,7.22
2023-02-02T00:29:33.168Z,7.82
2023-02-02T00:32:03.776Z,7.28
2023-02-02T00:34:32.575Z,7.38
2023-02-02T00:37:01.744Z,7.20
2023-02-02T00:39:30.966Z,7.25
2023-02-02T00:42:00.165Z,9.80
2023-02-02T00:44:46.288Z,8.68
2023-02-02T00:47:18.027Z,8.52
2023-02-02T00:49:46.980Z,6.55
2023-02-02T00:52:16.296Z,7.28
2023-02-02T00:54:47.041Z,6.47
2023-02-02T00:57:17.061Z,6.40
2023-02-02T00:59:45.955Z,9.98
2023-02-02T01:02:16.517Z,8.70
2023-02-02T01:04:45.710Z,7.75
2023-02-02T01:07:14.906Z,8.32
2023-02-02T01:09:43.745Z,8.48
2023-02-02T01:12:12.994Z,8.18
2023-02-02T01:14:41.895Z,6.75
2023-02-02T01:17:11.130Z,10.30
2023-02-02T01:19:41.520Z,6.97
2023-02-02T01:22:10.952Z,9.90
2023-02-02T01:24:40.334Z,11.00
2023-02-02T01:27:09.597Z,7.55
2023-02-02T01:29:38.450Z,8.68
2023-02-02T01:32:07.744Z,10.38
2023-02-02T01:34:36.639Z,8.55
2023-02-02T01:37:07.786Z,8.85
2023-02-02T01:39:36.929Z,7.47
2023-02-02T01:42:15.138Z,8.70
2023-02-02T01:45:20.660Z,9.52
2023-02-02T01:47:55.322Z,7.00
2023-02-02T01:50:29.626Z,6.13
2023-02-02T01:53:03.305Z,7.57
2023-02-02T01:55:37.109Z,9.60
2023-02-02T01:58:11.418Z,7.07
2023-02-02T02:00:45.059Z,5.43
2023-02-02T02:03:20.149Z,8.85
2023-02-02T02:05:56.658Z,9.45
2023-02-02T02:08:32.588Z,8.45
2023-02-02T02:11:02.503Z,8.98
2023-02-02T02:13:49.787Z,9.23
2023-02-02T02:16:32.275Z,8.88
2023-02-02T02:19:22.700Z,9.25
2023-02-02T02:22:20.854Z,7.35
2023-02-02T02:25:53.413Z,7.70
2023-02-02T02:28:52.596Z,10.10
2023-02-02T02:32:01.272Z,13.85
2023-02-02T02:34:54.103Z,6.53
2023-02-02T02:37:38.109Z,6.18
2023-02-02T02:40:21.716Z,10.18
2023-02-02T02:42:56.807Z,6.40
2023-02-02T02:45:29.912Z,9.60
2023-02-02T02:48:00.997Z,8.38
2023-02-02T02:50:31.166Z,9.18
2023-02-02T02:53:10.709Z,7.32
2023-02-02T02:55:50.209Z,12.32
2023-02-02T02:58:32.563Z,11.32
2023-02-02T03:01:11.759Z,11.00
2023-02-02T03:04:06.919Z,11.73
2023-02-02T03:06:46.481Z,13.98
2023-02-02T03:09:23.344Z,10.18
2023-02-02T03:11:52.327Z,14.48
2023-02-02T03:14:21.466Z,11.15
2023-02-02T03:16:52.753Z,9.77
2023-02-02T03:19:23.590Z,15.82
2023-02-02T03:21:52.397Z,11.35
2023-02-02T03:24:21.511Z,11.98
2023-02-02T03:26:50.514Z,12.35
2023-02-02T03:29:20.241Z,12.90
2023-02-02T03:31:49.525Z,16.42
2023-02-02T03:34:18.619Z,13.15
2023-02-02T03:36:48.779Z,16.50
2023-02-02T03:39:18.041Z,12.68
2023-02-02T03:41:46.915Z,10.57
2023-02-02T03:44:15.978Z,14.20
2023-02-02T03:46:44.856Z,9.77
2023-02-02T03:49:14.052Z,11.27
2023-02-02T03:51:44.344Z,9.75
2023-02-02T03:54:15.522Z,14.02
2023-02-02T03:56:44.378Z,11.32
2023-02-02T03:59:13.396Z,8.15
2023-02-02T04:01:42.373Z,8.57
2023-02-02T04:04:11.498Z,11.02
2023-02-02T04:06:40.417Z,12.30
2023-02-02T04:09:09.647Z,8.57
2023-02-02T04:11:40.147Z,11.45
2023-02-02T04:14:10.741Z,14.00
2023-02-02T04:16:39.546Z,9.98
2023-02-02T04:19:08.785Z,12.73
2023-02-02T04:21:37.545Z,11.38
2023-02-02T04:24:07.972Z,7.20
2023-02-02T04:26:36.823Z,10.60
2023-02-02T04:29:07.414Z,10.05
2023-02-02T04:31:36.287Z,6.45
2023-02-02T04:34:05.651Z,8.73
2023-02-02T04:36:34.547Z,12.48
2023-02-02T04:39:03.643Z,11.70
2023-02-02T04:41:32.538Z,10.80
2023-02-02T04:44:01.620Z,6.68
2023-02-02T04:46:32.187Z,9.60
2023-02-02T04:49:01.285Z,9.77
2023-02-02T04:51:30.082Z,12.55
2023-02-02T04:53:59.173Z,9.43
2023-02-02T04:56:29.175Z,10.95
2023-02-02T04:58:58.388Z,9.38
2023-02-02T05:01:27.723Z,9.45
2023-02-02T05:03:58.416Z,10.20
2023-02-02T05:06:27.353Z,11.25
2023-02-02T05:08:56.515Z,11.48
2023-02-02T05:11:25.769Z,7.07
2023-02-02T05:13:56.564Z,9.38
2023-02-02T05:16:28.816Z,7.60
2023-02-02T05:18:59.758Z,13.35
2023-02-02T05:21:28.834Z,8.27
2023-02-02T05:23:58.502Z,9.95
2023-02-02T05:26:28.449Z,13.88
2023-02-02T05:28:58.600Z,8.57
2023-02-02T05:31:27.466Z,10.43
2023-02-02T05:33:56.621Z,7.00
2023-02-02T05:36:26.796Z,10.82
2023-02-02T05:38:56.006Z,9.68
2023-02-02T05:41:24.767Z,10.20
2023-02-02T05:43:53.872Z,7.95
2023-02-02T05:46:22.683Z,9.05
2023-02-02T05:48:51.761Z,8.45
2023-02-02T05:51:25.505Z,7.32
2023-02-02T05:53:56.280Z,8.98
2023-02-02T05:56:25.242Z,9.80
2023-02-02T05:58:54.332Z,10.13
2023-02-02T06:01:23.406Z,7.22
2023-02-02T06:03:52.594Z,9.70
2023-02-02T06:06:21.439Z,11.85
2023-02-02T06:08:50.567Z,11.70
2023-02-02T06:11:21.106Z,12.93
2023-02-02T06:13:50.494Z,9.48
2023-02-02T06:16:19.324Z,12.13
2023-02-02T06:18:48.615Z,8.43
2023-02-02T06:21:19.828Z,10.15
2023-02-02T06:23:49.066Z,10.35
2023-02-02T06:26:18.866Z,7.15
2023-02-02T06:28:53.793Z,10.85
2023-02-02T06:31:23.557Z,5.28
2023-02-02T06:33:56.740Z,7.90
2023-02-02T06:36:27.914Z,9.80
2023-02-02T06:38:59.278Z,7.38
2023-02-02T06:41:28.069Z,6.85
2023-02-02T06:43:58.498Z,10.02
2023-02-02T06:46:27.579Z,12.00
2023-02-02T06:48:56.685Z,10.63
2023-02-02T06:51:25.489Z,7.43
2023-02-02T06:53:54.605Z,10.48
2023-02-02T06:56:23.537Z,7.55
2023-02-02T06:58:52.595Z,7.18
2023-02-02T07:01:23.064Z,6.85
2023-02-02T07:03:53.549Z,9.18
2023-02-02T07:06:25.853Z,7.15
2023-02-02T07:09:02.324Z,9.25
2023-02-02T07:11:39.511Z,6.55
2023-02-02T07:14:13.567Z,5.72
2023-02-02T07:16:43.878Z,8.73
2023-02-02T07:19:13.020Z,6.43
2023-02-02T07:21:41.877Z,6.70
2023-02-02T07:24:11.240Z,9.68
2023-02-02T07:26:40.150Z,6.68
2023-02-02T07:29:13.250Z,6.20
2023-02-02T07:31:43.779Z,5.50
2023-02-02T07:34:13.057Z,6.10
2023-02-02T07:36:41.987Z,9.23
2023-02-02T07:39:12.493Z,6.05
2023-02-02T07:41:41.456Z,7.93
2023-02-02T07:44:18.920Z,7.50
2023-02-02T07:46:49.380Z,5.95
2023-02-02T07:49:20.407Z,5.30
2023-02-02T07:51:49.405Z,6.72
2023-02-02T07:54:18.570Z,6.32
2023-02-02T07:56:47.396Z,6.38
2023-02-02T07:59:16.581Z,5.20
2023-02-02T08:01:45.507Z,5.68
2023-02-02T08:04:17.364Z,6.80
2023-02-02T08:06:46.237Z,4.05
2023-02-02T08:09:15.297Z,4.97
2023-02-02T08:11:44.138Z,6.10
2023-02-02T08:14:15.146Z,5.47
2023-02-02T08:16:44.091Z,5.60
2023-02-02T08:19:15.180Z,4.10
2023-02-02T08:21:44.044Z,4.53
2023-02-02T08:24:13.148Z,7.60
2023-02-02T08:26:42.096Z,5.32
2023-02-02T08:29:11.451Z,4.35
2023-02-02T08:31:42.859Z,4.57
2023-02-02T08:34:14.034Z,3.85
2023-02-02T08:36:44.299Z,3.45
2023-02-02T08:39:14.493Z,4.38
2023-02-02T08:41:43.342Z,5.20
2023-02-02T08:44:15.943Z,4.22
2023-02-02T08:46:44.818Z,4.25
2023-02-02T08:49:14.917Z,6.95
2023-02-02T08:51:45.137Z,5.22
2023-02-02T08:54:15.120Z,5.65
2023-02-02T08:56:43.980Z,5.10
2023-02-02T08:59:13.058Z,4.28
2023-02-02T09:01:41.867Z,5.10
2023-02-02T09:04:17.179Z,5.15
2023-02-02T09:06:48.295Z,4.68
2023-02-02T09:09:18.045Z,4.78
2023-02-02T09:11:48.061Z,7.65
2023-02-02T09:14:17.239Z,6.60
2023-02-02T09:16:46.134Z,6.55
2023-02-02T09:19:15.285Z,7.18
2023-02-02T09:21:44.337Z,7.25
2023-02-02T09:24:15.596Z,5.50
2023-02-02T09:26:45.860Z,6.05
2023-02-02T09:29:18.855Z,6.90
2023-02-02T09:31:48.039Z,5.35
2023-02-02T09:34:17.850Z,4.30
2023-02-02T09:36:47.780Z,6.43
2023-02-02T09:39:19.573Z,6.00
2023-02-02T09:42:33.874Z,6.30
2023-02-02T09:45:12.648Z,4.93
2023-02-02T09:47:56.740Z,6.85
2023-02-02T09:50:46.995Z,7.10
2023-02-02T09:53:35.020Z,7.15
2023-02-02T09:56:17.510Z,8.68
2023-02-02T09:58:52.233Z,9.23
2023-02-02T10:01:28.215Z,8.48
2023-02-02T10:04:05.564Z,6.93
2023-02-02T10:06:40.645Z,6.90
2023-02-02T10:09:27.010Z,6.78
2023-02-02T10:12:06.306Z,5.20
2023-02-02T10:14:42.355Z,4.72
2023-02-02T10:17:41.707Z,7.05
2023-02-02T10:20:35.311Z,6.07
2023-02-02T10:23:17.144Z,6.10
2023-02-02T10:25:57.414Z,5.03
2023-02-02T10:28:55.217Z,4.93
2023-02-02T10:31:44.112Z,5.03
2023-02-02T10:34:23.124Z,5.10
2023-02-02T10:37:23.723Z,7.75
2023-02-02T10:40:14.894Z,4.68
2023-02-02T10:43:18.610Z,4.10
2023-02-02T10:45:52.601Z,7.82
2023-02-02T10:48:30.398Z,4.72
2023-02-02T10:51:07.288Z,4.82
2023-02-02T10:53:36.487Z,6.47
2023-02-02T10:56:13.123Z,5.00
2023-02-02T10:58:53.186Z,5.20
2023-02-02T11:01:23.787Z,4.10
2023-02-02T11:04:13.280Z,3.80
2023-02-02T11:06:51.355Z,4.18
2023-02-02T11:09:25.345Z,3.92
2023-02-02T11:12:02.150Z,4.07
2023-02-02T11:14:45.478Z,5.75
2023-02-02T11:17:22.648Z,3.58
2023-02-02T11:19:52.467Z,3.63
2023-02-02T11:22:33.982Z,5.43
2023-02-02T11:25:06.454Z,4.22
2023-02-02T11:27:41.291Z,5.07
2023-02-02T11:30:27.486Z,5.82
2023-02-02T11:32:58.307Z,4.93
2023-02-02T11:35:29.772Z,5.65
2023-02-02T11:38:11.211Z,5.20
2023-02-02T11:40:43.612Z,7.13
2023-02-02T11:43:21.017Z,5.55
2023-02-02T11:45:59.286Z,4.97
2023-02-02T11:48:36.749Z,5.75
2023-02-02T11:51:09.051Z,7.05
2023-02-02T11:53:47.733Z,7.20
2023-02-02T11:56:25.190Z,8.52
2023-02-02T11:58:56.630Z,8.63
2023-02-02T12:01:28.400Z,6.55
2023-02-02T12:04:01.654Z,7.28
2023-02-02T12:06:39.313Z,7.45
2023-02-02T12:09:15.937Z,7.10
2023-02-02T12:12:02.340Z,7.45
2023-02-02T12:14:48.174Z,9.93
2023-02-02T12:17:39.037Z,7.30
2023-02-02T12:20:27.691Z,8.00
2023-02-02T12:23:39.345Z,10.55
2023-02-02T12:26:23.194Z,9.77
2023-02-02T12:29:26.674Z,9.65
2023-02-02T12:32:24.729Z,7.45
2023-02-02T12:35:14.180Z,7.25
2023-02-02T12:38:02.450Z,8.38
2023-02-02T12:40:55.785Z,6.85
2023-02-02T12:43:39.616Z,8.48
2023-02-02T12:46:37.799Z,9.75
2023-02-02T12:49:39.034Z,7.07
2023-02-02T12:52:30.234Z,10.00
2023-02-02T12:55:23.300Z,5.68
2023-02-02T12:58:07.385Z,7.53
2023-02-02T13:01:21.319Z,10.32
2023-02-02T13:07:43.942Z,4.10
2023-02-02T13:10:29.324Z,6.43
2023-02-02T13:13:05.650Z,10.27
2023-02-02T13:15:38.755Z,4.15
2023-02-02T13:18:15.027Z,3.47
2023-02-02T13:20:49.747Z,4.90
2023-02-02T13:23:29.194Z,4.93
2023-02-02T13:26:08.110Z,4.00
2023-02-02T13:28:44.786Z,3.97
2023-02-02T13:31:20.686Z,7.05
2023-02-02T13:34:05.685Z,4.22
2023-02-02T13:36:39.072Z,6.60
2023-02-02T13:39:19.717Z,4.03
2023-02-02T13:41:53.430Z,4.77
2023-02-02T13:44:33.276Z,3.50
2023-02-02T13:47:10.747Z,5.75
2023-02-02T13:49:47.754Z,4.32
2023-02-02T13:52:47.483Z,4.13
2023-02-02T13:55:50.269Z,4.18
2023-02-02T13:59:00.992Z,3.72
2023-02-02T14:01:33.567Z,7.85
2023-02-02T14:04:04.524Z,6.03
2023-02-02T14:06:57.393Z,7.03
2023-02-02T14:09:31.016Z,5.40
2023-02-02T14:12:04.274Z,5.78
2023-02-02T14:14:39.953Z,5.05
2023-02-02T14:17:55.718Z,6.28
2023-02-02T14:20:51.778Z,7.13
2023-02-02T14:23:53.819Z,5.38
2023-02-02T14:26:44.947Z,6.88
2023-02-02T14:30:00.102Z,7.15
2023-02-02T14:32:43.821Z,4.13
2023-02-02T14:35:55.869Z,5.43
2023-02-02T14:39:01.080Z,4.30
2023-02-02T14:42:15.518Z,4.25
2023-02-02T14:45:30.131Z,5.65
2023-02-02T14:48:02.471Z,4.45
2023-02-02T14:50:50.039Z,5.07
2023-02-02T14:53:26.950Z,6.80
2023-02-02T14:56:04.135Z,6.05
2023-02-02T14:58:37.240Z,3.83
2023-02-02T15:01:14.600Z,6.97
2023-02-02T15:03:55.419Z,5.95
2023-02-02T15:06:33.920Z,4.45
2023-02-02T15:09:41.456Z,4.97
2023-02-02T15:12:39.639Z,5.03
2023-02-02T15:15:24.829Z,5.65
2023-02-02T15:18:12.720Z,5.90
2023-02-02T15:20:48.921Z,5.75
2023-02-02T15:23:31.469Z,6.05
2023-02-02T15:26:07.923Z,7.78
2023-02-02T15:28:45.304Z,8.15
2023-02-02T15:31:24.313Z,8.73
2023-02-02T15:34:01.247Z,6.07
2023-02-02T15:36:34.769Z,5.72
2023-02-02T15:39:14.683Z,6.03
2023-02-02T15:41:46.288Z,6.70
2023-02-02T15:44:27.672Z,7.72
2023-02-02T15:46:58.371Z,11.23
2023-02-02T15:49:36.003Z,8.90
2023-02-02T15:52:16.098Z,6.78
2023-02-02T15:54:54.059Z,6.65
2023-02-02T15:57:29.462Z,6.53
2023-02-02T15:59:59.077Z,5.53
2023-02-02T16:02:38.965Z,5.32
2023-02-02T16:09:41.910Z,5.60
2023-02-02T16:12:18.712Z,5.80
2023-02-02T16:14:50.556Z,6.25
2023-02-02T16:21:59.742Z,6.25
2023-02-02T16:24:32.947Z,6.00
2023-02-02T16:27:10.115Z,6.60
2023-02-02T16:29:41.547Z,6.78
2023-02-02T16:32:29.779Z,7.05
2023-02-02T16:34:59.813Z,5.47
2023-02-02T16:37:32.480Z,6.75
2023-02-02T16:40:30.498Z,6.00
2023-02-02T16:43:16.923Z,5.22
2023-02-02T16:45:51.825Z,5.65
2023-02-02T16:52:56.348Z,6.72
2023-02-02T16:55:39.894Z,8.60
2023-02-02T16:58:23.863Z,8.85
2023-02-02T17:02:31.163Z,6.88
2023-02-02T17:05:08.995Z,8.43
2023-02-02T17:07:42.030Z,7.38
2023-02-02T17:10:23.317Z,7.50
2023-02-02T17:12:52.412Z,6.30
2023-02-02T17:15:43.935Z,5.85
2023-02-02T17:18:12.785Z,5.72
2023-02-02T17:20:42.057Z,7.32
2023-02-02T17:23:19.595Z,5.70
2023-02-02T17:25:49.072Z,9.13
2023-02-02T17:28:21.749Z,7.80
2023-02-02T17:31:00.299Z,7.53
2023-02-02T17:33:29.632Z,8.85
2023-02-02T17:35:58.773Z,7.80
2023-02-02T17:38:28.339Z,8.43
2023-02-02T17:41:01.590Z,6.47
2023-02-02T17:43:31.354Z,8.35
2023-02-02T17:46:03.853Z,5.80
2023-02-02T17:48:32.788Z,7.07
2023-02-02T17:51:03.245Z,8.07
2023-02-02T17:53:33.520Z,7.85
2023-02-02T17:56:02.717Z,5.70
2023-02-02T17:58:31.801Z,7.32
2023-02-02T18:01:03.268Z,6.90
2023-02-02T18:03:37.355Z,5.25
2023-02-02T18:06:07.463Z,7.00
2023-02-02T18:08:36.434Z,7.05
2023-02-02T18:15:38.282Z,6.75
2023-02-02T18:18:08.632Z,7.63
2023-02-02T18:20:37.783Z,8.50
2023-02-02T18:23:06.572Z,7.20
2023-02-02T18:25:35.671Z,9.00
2023-02-02T18:28:04.775Z,7.45
2023-02-02T18:35:08.559Z,6.28
2023-02-02T18:37:37.652Z,6.25
2023-02-02T18:40:08.546Z,5.78
2023-02-02T18:42:37.921Z,7.32
2023-02-02T18:45:08.556Z,7.10
2023-02-02T18:47:38.146Z,7.25
2023-02-02T18:50:11.603Z,5.93
2023-02-02T18:52:40.583Z,6.07
2023-02-02T18:55:10.829Z,6.93
2023-02-02T18:57:39.687Z,7.60
2023-02-02T19:00:10.981Z,6.00
2023-02-02T19:02:40.052Z,6.80
2023-02-02T19:05:28.745Z,6.50
2023-02-02T19:07:59.190Z,8.30
2023-02-02T19:10:28.877Z,5.90
2023-02-02T19:13:10.533Z,6.95
2023-02-02T19:15:41.785Z,6.65
2023-02-02T19:18:16.494Z,5.43
2023-02-02T19:20:48.516Z,5.38
2023-02-02T19:23:20.876Z,4.93
2023-02-02T19:30:24.335Z,4.30
2023-02-02T19:32:53.439Z,6.43
2023-02-02T19:35:26.357Z,6.95
2023-02-02T19:38:03.850Z,5.10
2023-02-02T19:40:35.049Z,6.22
2023-02-02T19:43:24.385Z,4.85
2023-02-02T19:45:54.696Z,4.85
2023-02-02T19:48:27.805Z,5.85
2023-02-02T19:55:37.541Z,7.50
2023-02-02T20:02:53.102Z,4.57
2023-02-02T20:05:25.688Z,4.60
2023-02-02T20:08:01.369Z,4.70
2023-02-02T20:10:42.684Z,4.00
2023-02-02T20:13:18.146Z,5.47
2023-02-02T20:15:48.499Z,5.28
2023-02-02T20:18:22.156Z,5.50
2023-02-02T20:20:55.462Z,7.68
2023-02-02T20:23:40.563Z,5.60
2023-02-02T20:26:25.994Z,6.47
2023-02-02T20:28:59.197Z,7.03
2023-02-02T20:31:38.235Z,7.87
2023-02-02T20:34:25.361Z,6.80
2023-02-02T20:36:58.842Z,7.35
2023-02-02T20:39:34.431Z,7.83
2023-02-02T20:42:06.016Z,6.55
2023-02-02T20:44:36.470Z,5.70
2023-02-02T20:47:07.888Z,5.43
2023-02-02T20:49:38.853Z,8.32
2023-02-02T20:52:13.051Z,4.75
2023-02-02T20:54:42.272Z,5.80
2023-02-02T20:57:12.819Z,5.88
2023-02-02T20:59:41.921Z,7.03
2023-02-02T21:02:19.066Z,6.35
2023-02-02T21:04:49.813Z,5.85
2023-02-02T21:07:22.243Z,6.93
2023-02-02T21:09:52.545Z,8.10
2023-02-02T21:12:25.666Z,7.18
2023-02-02T21:14:55.252Z,5.60
2023-02-02T21:17:24.229Z,6.33
2023-02-02T21:24:25.702Z,7.78
2023-02-02T21:26:54.938Z,8.25
2023-02-02T21:29:25.531Z,5.20
2023-02-02T21:31:58.774Z,6.33
2023-02-02T21:34:28.184Z,5.85
2023-02-02T21:36:58.700Z,6.20
2023-02-02T21:39:32.096Z,5.88
2023-02-02T21:42:15.661Z,9.05
2023-02-02T21:44:53.728Z,7.90
2023-02-02T21:47:33.979Z,8.33
2023-02-02T21:50:16.863Z,6.63
2023-02-02T21:52:46.568Z,8.17
2023-02-02T21:55:35.528Z,8.32
2023-02-02T21:58:23.404Z,8.20
2023-02-02T22:00:55.296Z,6.32
2023-02-02T22:03:38.609Z,5.50
2023-02-02T22:06:26.445Z,6.82
2023-02-02T22:09:03.022Z,6.90
2023-02-02T22:11:45.631Z,7.20
2023-02-02T22:14:21.103Z,7.13
2023-02-02T22:16:54.570Z,7.13
2023-02-02T22:19:35.334Z,6.00
2023-02-02T22:26:36.299Z,6.65
2023-02-02T22:29:16.327Z,6.20
2023-02-02T22:31:45.576Z,6.63
2023-02-02T22:34:15.765Z,7.55
2023-02-02T22:41:16.350Z,4.85
2023-02-02T22:52:53.784Z,4.55
2023-02-02T22:55:23.685Z,6.33
2023-02-02T22:57:52.923Z,6.93
2023-02-02T23:04:53.721Z,5.80
2023-02-02T23:07:22.665Z,7.00
2023-02-02T23:09:53.154Z,7.63
2023-02-02T23:12:22.020Z,9.45
2023-02-02T23:14:51.233Z,7.25
2023-02-02T23:17:20.245Z,7.28
2023-02-02T23:19:49.539Z,4.77
2023-02-02T23:22:18.549Z,5.78
2023-02-02T23:29:21.923Z,5.20
2023-02-02T23:47:42.198Z,4.47
2023-02-02T23:50:13.435Z,6.33
2023-02-02T23:52:42.564Z,4.93
2023-02-02T23:55:12.330Z,6.45
2023-02-02T23:57:41.332Z,6.80
